Ocean Titan — WDB9647 — position and weather

sailwx.info

Track history (hours):
 
Tides and Currents Weather Stations Pressure Air Temp Water Temp Dewpoint Dewpoint Depression Visibility Wind Speed Wind Dir Waves Ship Positions

Ocean Titan

Owner: WESTERN TOWBOAT CO, Seattle, WA. More information available from US FCC via Universal Licensing System and Coast Guard Vessel Documentation Center.

Last reported at 2018-Jun-25 03:11 UTC. Time now 2018-Jun-25 08:03 UTC.
Position N 49°33' W 124°20'.

Type: Tow > 200 m length. MMSI: 366980180.

Date/timePositionNaut miles runAvg speedWind from/ knotsBaromVisibWave heightAir tempDewpointWater temp
2018-Jun-25 03:11N 49°33' W 124°20'310.0
2018-Jun-25 02:53N 49°34' W 124°25'4 9.6
2018-Jun-25 02:30N 49°36' W 124°29'5 9.0
2018-Jun-25 01:58N 49°39' W 124°35'4 9.0
2018-Jun-25 01:31N 49°42' W 124°40'4 8.9
2018-Jun-25 01:00N 49°44' W 124°46'5 9.1
2018-Jun-25 00:30N 49°47' W 124°51'5 9.7
2018-Jun-25 00:00N 49°51' W 124°57'5 9.8
2018-Jun-24 23:30N 49°54' W 125°03'610.9
2018-Jun-24 22:57N 49°58' W 125°10'510.7
2018-Jun-24 22:30N 50°02' W 125°13'611.9
2018-Jun-24 22:01N 50°07' W 125°18'5 9.7
2018-Jun-24 21:31N 50°11' W 125°22'5 9.6
2018-Jun-24 20:59N 50°16' W 125°24'63 9.3
2018-Jun-24 14:16N 50°41' W 126°54'3 9.8
2018-Jun-24 14:00N 50°42' W 126°58'5 8.7
2018-Jun-24 13:23N 50°45' W 127°05'4 9.3
2018-Jun-24 13:00N 50°47' W 127°10'5 9.2
2018-Jun-24 12:30N 50°50' W 127°15'5 9.2
2018-Jun-24 12:00N 50°53' W 127°21'4 8.2
2018-Jun-24 11:30N 50°55' W 127°26'4 8.0
2018-Jun-24 11:00N 50°58' W 127°31'4 8.6
2018-Jun-24 10:30N 51°00' W 127°36'4 8.4
2018-Jun-24 10:00N 51°03' W 127°41'4 8.8
2018-Jun-24 09:30N 51°06' W 127°46'5 8.8
2018-Jun-24 08:59N 51°10' W 127°51'5 9.7
2018-Jun-24 08:30N 51°14' W 127°52'5 9.8
2018-Jun-24 07:59N 51°19' W 127°56'5 9.5
2018-Jun-24 07:30N 51°23' W 127°60'5 9.4
2018-Jun-24 07:00N 51°26' W 128°06'5 9.2
2018-Jun-24 06:30N 51°29' W 128°11'5 9.6
2018-Jun-24 06:00N 51°33' W 128°16'5 9.7
2018-Jun-24 05:30N 51°37' W 128°20'5 9.7
2018-Jun-24 05:00N 51°41' W 128°24'5 9.4
2018-Jun-24 04:30N 51°45' W 128°27'5 9.3
2018-Jun-24 04:00N 51°49' W 128°31'5 9.1
2018-Jun-24 03:30N 51°53' W 128°34'5 9.1
2018-Jun-24 03:00N 51°58' W 128°36'5 9.3
2018-Jun-24 02:30N 52°02' W 128°39'5 9.1
2018-Jun-24 02:00N 52°06' W 128°41'5 9.3
2018-Jun-24 01:30N 52°11' W 128°44'5 9.3
2018-Jun-24 01:00N 52°15' W 128°46'5 9.0
2018-Jun-24 00:30N 52°20' W 128°48'6 9.0
2018-Jun-23 23:51N 52°25' W 128°50'3 8.9
2018-Jun-23 23:28N 52°29' W 128°52'77 9.2
2018-Jun-23 15:07N 53°31' W 130°06'2 8.8
2018-Jun-23 14:56N 53°32' W 130°08'6 8.9
2018-Jun-23 14:16N 53°35' W 130°17'6 9.3
2018-Jun-23 13:39N 53°38' W 130°25'2 9.6
2018-Jun-23 13:24N 53°40' W 130°28'4 9.1
2018-Jun-23 13:00N 53°42' W 130°33'5 9.1
2018-Jun-23 12:25N 53°45' W 130°40'4 9.2
2018-Jun-23 12:00N 53°48' W 130°45'5 9.3
2018-Jun-23 11:30N 53°51' W 130°50'5 9.7
2018-Jun-23 11:00N 53°55' W 130°56'5 9.7
2018-Jun-23 10:30N 53°59' W 131°00'5 9.6
2018-Jun-23 10:00N 54°03' W 131°01'5 9.2
2018-Jun-23 09:30N 54°08' W 131°02'5 9.4
2018-Jun-23 09:00N 54°13' W 131°02'4 9.0
2018-Jun-23 08:30N 54°17' W 131°03'5 8.9
2018-Jun-23 07:59N 54°22' W 131°03'5 9.1
2018-Jun-23 07:29N 54°26' W 131°03'5 9.3
2018-Jun-23 06:58N 54°31' W 131°01'  
2018-Jun-16 20:52N 54°44' W 130°53'3 9.0
2018-Jun-16 20:28N 54°41' W 130°49'5 9.3
2018-Jun-16 19:56N 54°37' W 130°44'4 8.9
2018-Jun-16 19:29N 54°33' W 130°43'5 9.6
2018-Jun-16 19:00N 54°29' W 130°41'5 9.4
2018-Jun-16 18:30N 54°24' W 130°38'5 9.3
2018-Jun-16 18:00N 54°20' W 130°36'5 9.1
2018-Jun-16 17:30N 54°16' W 130°33'5 9.7
2018-Jun-16 17:00N 54°11' W 130°29'510.2
2018-Jun-16 16:30N 54°07' W 130°24'5 9.7
2018-Jun-16 16:00N 54°05' W 130°17'4 8.9
2018-Jun-16 15:30N 54°01' W 130°13'5 9.5
2018-Jun-16 15:00N 53°56' W 130°11'5 8.9
2018-Jun-16 14:30N 53°53' W 130°05'4 9.0
2018-Jun-16 14:00N 53°50' W 130°00'4 8.6
2018-Jun-16 13:30N 53°47' W 129°56'94 7.8
2018-Jun-16 01:27N 52°29' W 128°28'4 9.2
2018-Jun-16 01:00N 52°25' W 128°30'4 8.4
2018-Jun-16 00:30N 52°21' W 128°31'4 8.7
2018-Jun-16 00:00N 52°17' W 128°28'5 9.1
2018-Jun-15 23:29N 52°15' W 128°21'4 8.8
2018-Jun-15 23:00N 52°16' W 128°14'4 8.7
2018-Jun-15 22:30N 52°17' W 128°07'4 8.2
2018-Jun-15 22:00N 52°19' W 128°01'4 8.2
2018-Jun-15 21:30N 52°16' W 127°55'5 9.7
2018-Jun-15 21:00N 52°12' W 127°53'510.0
2018-Jun-15 20:30N 52°07' W 127°53'510.2
2018-Jun-15 20:00N 52°02' W 127°55'5 9.8
2018-Jun-15 19:30N 51°57' W 127°56'510.0
2018-Jun-15 19:00N 51°52' W 127°56'5 9.4
2018-Jun-15 18:30N 51°47' W 127°55'4 7.6
2018-Jun-15 18:00N 51°43' W 127°55'4 8.8
2018-Jun-15 17:30N 51°39' W 127°54'4 8.8
2018-Jun-15 17:00N 51°35' W 127°53'4 8.4
2018-Jun-15 16:30N 51°31' W 127°52'4 8.4
2018-Jun-15 15:59N 51°26' W 127°51'4 8.7
2018-Jun-15 15:30N 51°22' W 127°53'4 8.1
2018-Jun-15 14:59N 51°18' W 127°53'4 8.6
2018-Jun-15 14:29N 51°14' W 127°52'4 9.0
2018-Jun-15 14:00N 51°10' W 127°50'4 8.9
2018-Jun-15 13:30N 51°06' W 127°46'5 9.5
2018-Jun-15 12:59N 51°03' W 127°40'5 9.7
2018-Jun-15 12:30N 50°59' W 127°35'5 9.8
2018-Jun-15 12:00N 50°57' W 127°28'510.3
2018-Jun-15 11:30N 50°54' W 127°22'5 9.5
2018-Jun-15 11:00N 50°51' W 127°15'5 9.2
2018-Jun-15 10:30N 50°49' W 127°09'4 8.4
2018-Jun-15 10:00N 50°47' W 127°04'11 8.4
2018-Jun-15 08:39N 50°39' W 126°50'3 8.4
2018-Jun-15 08:21N 50°38' W 126°47'4 9.0
2018-Jun-15 07:52N 50°35' W 126°42'4 8.3
2018-Jun-15 07:20N 50°31' W 126°38'310.0
2018-Jun-15 07:00N 50°30' W 126°33'  
Track history (hours):
 
Tides and Currents Weather Stations Pressure Air Temp Water Temp Dewpoint Dewpoint Depression Visibility Wind Speed Wind Dir Waves Ship Positions

Ocean Titan

Owner: WESTERN TOWBOAT CO, Seattle, WA. More information available from US FCC via Universal Licensing System and Coast Guard Vessel Documentation Center.

Last reported at 2018-Jun-25 03:11 UTC. Time now 2018-Jun-25 08:03 UTC.
Position N 49°33' W 124°20'.

Type: Tow > 200 m length. MMSI: 366980180.

Date/timePositionNaut miles runAvg speedWind from/ knotsBaromVisibWave heightAir tempDewpointWater temp
2018-Jun-25 03:11N 49°33' W 124°20'310.0
2018-Jun-25 02:53N 49°34' W 124°25'4 9.6
2018-Jun-25 02:30N 49°36' W 124°29'5 9.0
2018-Jun-25 01:58N 49°39' W 124°35'4 9.0
2018-Jun-25 01:31N 49°42' W 124°40'4 8.9
2018-Jun-25 01:00N 49°44' W 124°46'5 9.1
2018-Jun-25 00:30N 49°47' W 124°51'5 9.7
2018-Jun-25 00:00N 49°51' W 124°57'5 9.8
2018-Jun-24 23:30N 49°54' W 125°03'610.9
2018-Jun-24 22:57N 49°58' W 125°10'510.7
2018-Jun-24 22:30N 50°02' W 125°13'611.9
2018-Jun-24 22:01N 50°07' W 125°18'5 9.7
2018-Jun-24 21:31N 50°11' W 125°22'5 9.6
2018-Jun-24 20:59N 50°16' W 125°24'63 9.3
2018-Jun-24 14:16N 50°41' W 126°54'3 9.8
2018-Jun-24 14:00N 50°42' W 126°58'5 8.7
2018-Jun-24 13:23N 50°45' W 127°05'4 9.3
2018-Jun-24 13:00N 50°47' W 127°10'5 9.2
2018-Jun-24 12:30N 50°50' W 127°15'5 9.2
2018-Jun-24 12:00N 50°53' W 127°21'4 8.2
2018-Jun-24 11:30N 50°55' W 127°26'4 8.0
2018-Jun-24 11:00N 50°58' W 127°31'4 8.6
2018-Jun-24 10:30N 51°00' W 127°36'4 8.4
2018-Jun-24 10:00N 51°03' W 127°41'4 8.8
2018-Jun-24 09:30N 51°06' W 127°46'5 8.8
2018-Jun-24 08:59N 51°10' W 127°51'5 9.7
2018-Jun-24 08:30N 51°14' W 127°52'5 9.8
2018-Jun-24 07:59N 51°19' W 127°56'5 9.5
2018-Jun-24 07:30N 51°23' W 127°60'5 9.4
2018-Jun-24 07:00N 51°26' W 128°06'5 9.2
2018-Jun-24 06:30N 51°29' W 128°11'5 9.6
2018-Jun-24 06:00N 51°33' W 128°16'5 9.7
2018-Jun-24 05:30N 51°37' W 128°20'5 9.7
2018-Jun-24 05:00N 51°41' W 128°24'5 9.4
2018-Jun-24 04:30N 51°45' W 128°27'5 9.3
2018-Jun-24 04:00N 51°49' W 128°31'5 9.1
2018-Jun-24 03:30N 51°53' W 128°34'5 9.1
2018-Jun-24 03:00N 51°58' W 128°36'5 9.3
2018-Jun-24 02:30N 52°02' W 128°39'5 9.1
2018-Jun-24 02:00N 52°06' W 128°41'5 9.3
2018-Jun-24 01:30N 52°11' W 128°44'5 9.3
2018-Jun-24 01:00N 52°15' W 128°46'5 9.0
2018-Jun-24 00:30N 52°20' W 128°48'6 9.0
2018-Jun-23 23:51N 52°25' W 128°50'3 8.9
2018-Jun-23 23:28N 52°29' W 128°52'77 9.2
2018-Jun-23 15:07N 53°31' W 130°06'2 8.8
2018-Jun-23 14:56N 53°32' W 130°08'6 8.9
2018-Jun-23 14:16N 53°35' W 130°17'6 9.3
2018-Jun-23 13:39N 53°38' W 130°25'2 9.6
2018-Jun-23 13:24N 53°40' W 130°28'4 9.1
2018-Jun-23 13:00N 53°42' W 130°33'5 9.1
2018-Jun-23 12:25N 53°45' W 130°40'4 9.2
2018-Jun-23 12:00N 53°48' W 130°45'5 9.3
2018-Jun-23 11:30N 53°51' W 130°50'5 9.7
2018-Jun-23 11:00N 53°55' W 130°56'5 9.7
2018-Jun-23 10:30N 53°59' W 131°00'5 9.6
2018-Jun-23 10:00N 54°03' W 131°01'5 9.2
2018-Jun-23 09:30N 54°08' W 131°02'5 9.4
2018-Jun-23 09:00N 54°13' W 131°02'4 9.0
2018-Jun-23 08:30N 54°17' W 131°03'5 8.9
2018-Jun-23 07:59N 54°22' W 131°03'5 9.1
2018-Jun-23 07:29N 54°26' W 131°03'5 9.3
2018-Jun-23 06:58N 54°31' W 131°01'  
2018-Jun-16 20:52N 54°44' W 130°53'3 9.0
2018-Jun-16 20:28N 54°41' W 130°49'5 9.3
2018-Jun-16 19:56N 54°37' W 130°44'4 8.9
2018-Jun-16 19:29N 54°33' W 130°43'5 9.6
2018-Jun-16 19:00N 54°29' W 130°41'5 9.4
2018-Jun-16 18:30N 54°24' W 130°38'5 9.3
2018-Jun-16 18:00N 54°20' W 130°36'5 9.1
2018-Jun-16 17:30N 54°16' W 130°33'5 9.7
2018-Jun-16 17:00N 54°11' W 130°29'510.2
2018-Jun-16 16:30N 54°07' W 130°24'5 9.7
2018-Jun-16 16:00N 54°05' W 130°17'4 8.9
2018-Jun-16 15:30N 54°01' W 130°13'5 9.5
2018-Jun-16 15:00N 53°56' W 130°11'5 8.9
2018-Jun-16 14:30N 53°53' W 130°05'4 9.0
2018-Jun-16 14:00N 53°50' W 130°00'4 8.6
2018-Jun-16 13:30N 53°47' W 129°56'94 7.8
2018-Jun-16 01:27N 52°29' W 128°28'4 9.2
2018-Jun-16 01:00N 52°25' W 128°30'4 8.4
2018-Jun-16 00:30N 52°21' W 128°31'4 8.7
2018-Jun-16 00:00N 52°17' W 128°28'5 9.1
2018-Jun-15 23:29N 52°15' W 128°21'4 8.8
2018-Jun-15 23:00N 52°16' W 128°14'4 8.7
2018-Jun-15 22:30N 52°17' W 128°07'4 8.2
2018-Jun-15 22:00N 52°19' W 128°01'4 8.2
2018-Jun-15 21:30N 52°16' W 127°55'5 9.7
2018-Jun-15 21:00N 52°12' W 127°53'510.0
2018-Jun-15 20:30N 52°07' W 127°53'510.2
2018-Jun-15 20:00N 52°02' W 127°55'5 9.8
2018-Jun-15 19:30N 51°57' W 127°56'510.0
2018-Jun-15 19:00N 51°52' W 127°56'5 9.4
2018-Jun-15 18:30N 51°47' W 127°55'4 7.6
2018-Jun-15 18:00N 51°43' W 127°55'4 8.8
2018-Jun-15 17:30N 51°39' W 127°54'4 8.8
2018-Jun-15 17:00N 51°35' W 127°53'4 8.4
2018-Jun-15 16:30N 51°31' W 127°52'4 8.4
2018-Jun-15 15:59N 51°26' W 127°51'4 8.7
2018-Jun-15 15:30N 51°22' W 127°53'4 8.1
2018-Jun-15 14:59N 51°18' W 127°53'4 8.6
2018-Jun-15 14:29N 51°14' W 127°52'4 9.0
2018-Jun-15 14:00N 51°10' W 127°50'4 8.9
2018-Jun-15 13:30N 51°06' W 127°46'5 9.5
2018-Jun-15 12:59N 51°03' W 127°40'5 9.7
2018-Jun-15 12:30N 50°59' W 127°35'5 9.8
2018-Jun-15 12:00N 50°57' W 127°28'510.3
2018-Jun-15 11:30N 50°54' W 127°22'5 9.5
2018-Jun-15 11:00N 50°51' W 127°15'5 9.2
2018-Jun-15 10:30N 50°49' W 127°09'4 8.4
2018-Jun-15 10:00N 50°47' W 127°04'11 8.4
2018-Jun-15 08:39N 50°39' W 126°50'3 8.4
2018-Jun-15 08:21N 50°38' W 126°47'4 9.0
2018-Jun-15 07:52N 50°35' W 126°42'4 8.3
2018-Jun-15 07:20N 50°31' W 126°38'310.0
2018-Jun-15 07:00N 50°30' W 126°33'  

Dump ship's entire track history